Aérodrome :
LOGIN :

S'inscrire | Disclaimer

   EN    FR    IT 

 










Légende :    VFR   VFR Marginal   IFR   IFR Intensif   IFR Très Intensif
Visi : 
Plafond : 
>= 8 km
>= 3000ft
5 à 8 km
1000 à 3000 ft
1500m à 5 km
500 à 1000 ft
800 à 1500m
200 à 500 ft
< 800m
< 200 ft
Symboles :   Orages  Brouillard  Fortes neiges  Fortes précipitations  Vent > 20 kt
SIGMETs :   Divers  Orages  Givrage  Turbulence  Onde Orograph.  Cendres Volcan.






- Altitude de l'aérodrome : 19 ft
- Code IATA : VTS


EVVA - Ventspils Int.

DERNIER METAR :
  • 290950Z AUTO 16006KT 9999 FEW009 11/10 Q1009

METARs EXPIRÉS :
  • 290920Z AUTO 15007KT 9999 SCT008 BKN033 11/10 Q1009
  • 290850Z AUTO 16006KT 9999 BKN008 OVC033 11/10 Q1009
  • 290820Z AUTO 17006KT 9000 BKN010 OVC033 10/10 Q1009
  • 290750Z AUTO 17007KT 8000 SCT007 OVC034 10/10 Q1009
  • 290720Z AUTO 17008KT 7000 OVC006 10/10 Q1009

TAF N/A



MET'MAP, la Météo Aéronautique d'un coup d'oeil ! - Copyright ORBIFLY Décembre 2007 - Disclaimer

ORBIFLY MET'MAP TEAM :

Programmation & Développement : Alexandra Zaïnal
Sur une idée originale de : Baudouin d'Aumeries
Assistance à la programmation : Marc-Olivier Méhu
Soutien technique & logistique : Manuel Goepfert

Contact : metmap@orbifly.com




SOURCES & CREDITS :

   NOAA